• Join FlightAware (Why Join?)
  • Login
  • US Flag 
04:48AM EDT


 

Airport Tracker/Info


-or-


 

Live Flight TrackerFlight Track Log ✈ UCA5000 ✈ 07-Sep-2013 ✈ KEWR - KSYR

Flight Track Log - Related Links

Times and Time Zones

All times are in EDT time to prevent confusion due to time zone crossing. See the UCA5000 flight status page for this flight to view local times or setup timezone preferences in your user account.

Time Position Orientation Groundspeed Altitude Reporting Facility
EDT Latitude Longitude Course Direction KTS MPH feet Rate Location/Type
04:42PM 40.6500 -74.1833 304° West 144 166 1,300  Level New York TRACON
04:43PM 40.6333 -74.2167 237° Southwest 180 207 2,600 1,500 Climbing New York TRACON
04:44PM 40.6667 -74.2500 323° Northwest 182 209 4,200 1,680 Climbing New York TRACON
04:45PM 40.7000 -74.2833 323° Northwest 168 193 5,900 1,620 Climbing New York TRACON
04:46PM 40.7500 -74.3167 333° Northwest 184 212 7,500 1,380 Climbing New York TRACON
04:47PM 40.8000 -74.3333 346° North 198 228 8,800 1,200 Climbing New York TRACON
04:48PM 41.0565 -74.4494 304° West  Level Estimated
04:48PM 40.8500 -74.3500 346° North 213 245 10,000  Level New York TRACON
04:49PM 40.9167 -74.3833 339° North 244 281 10,100  Climbing New York TRACON
04:50PM 41.0000 -74.4167 343° North 270 311 10,100 -60 Level New York TRACON
04:51PM 41.0711 -74.4481 342° North 300 345 10,000 360 Descending New York Center
04:52PM 41.1492 -74.4825 342° North 281 323 10,900 480 Climbing New York Center
04:53PM 41.2128 -74.5081 343° North 265 305 11,000 360 Climbing New York Center
04:54PM 41.2889 -74.5372 344° North 265 305 11,700 480 Climbing New York Center
04:55PM 41.3483 -74.5656 340° North 260 299 12,000 120 Climbing New York Center
04:56PM 41.4219 -74.6111 335° Northwest 260 299 12,000  Level New York Center
04:57PM 41.4569 -74.6878 301° West 260 299 12,000  Level New York Center
04:58PM 41.5000 -74.7733 304° West 260 299 12,000  Level New York Center
04:59PM 41.5347 -74.8475 302° West 260 299 12,000  Level New York Center
05:01PM 41.6242 -74.9561 318° Northwest 271 312 12,000  Level Boston Center
05:02PM 41.6856 -75.0086 327° Northwest 266 306 12,000  Level Boston Center
05:03PM 41.7489 -75.0614 328° Northwest 266 306 12,000  Level Boston Center
05:04PM 41.8125 -75.1114 330° Northwest 271 312 12,000  Level Boston Center
05:05PM 41.8697 -75.1556 330° Northwest 266 306 12,000  Level Boston Center
05:06PM 41.9308 -75.2083 327° Northwest 266 306 12,000  Level Boston Center
05:07PM 41.9944 -75.2558 331° Northwest 266 306 12,000  Level Boston Center
05:08PM 42.0575 -75.3119 327° Northwest 271 312 12,000  Level Boston Center
05:09PM 42.1211 -75.3569 332° Northwest 271 312 12,000  Level Boston Center
05:10PM 42.1867 -75.3992 334° Northwest 261 300 12,000  Level Boston Center
05:11PM 42.2522 -75.4472 332° Northwest 261 300 12,000  Level Boston Center
05:12PM 42.3239 -75.4983 332° Northwest 261 300 12,000  Level Boston Center
05:13PM 42.3850 -75.5406 333° Northwest 261 300 12,000  Level Boston Center
05:13PM 42.3911 -75.5550 300° West 257 296 12,000  Level Boston Center
05:13PM 42.4014 -75.5611 336° Northwest 256 295 12,000 -120 Level Boston Center
05:14PM 42.4506 -75.5889 337° Northwest 261 300 11,900 -300 Descending Boston Center
05:14PM 42.4625 -75.6036 318° Northwest 252 290 11,700 -540 Descending Boston Center
05:15PM 42.5158 -75.6372 335° Northwest 261 300 11,400 -540 Descending Boston Center
05:15PM 42.5342 -75.6525 328° Northwest 263 303 11,200 -420 Descending Boston Center
05:16PM 42.5792 -75.6800 336° Northwest 261 300 11,000 -240 Descending Boston Center
05:16PM 42.5975 -75.6953 328° Northwest 267 307 11,000 -120 Level Boston Center
05:17PM 42.6428 -75.7231 336° Northwest 255 293 10,900 -300 Descending Boston Center
05:17PM 42.6608 -75.7436 320° Northwest 256 295 10,700 -900 Descending Boston Center
05:18PM 42.7081 -75.7689 339° North 261 300 10,000 -1,020 Descending Boston Center
05:18PM 42.7261 -75.7897 320° Northwest 266 306 9,700 -1,080 Descending Boston Center
05:19PM 42.7733 -75.8175 337° Northwest 262 302 9,000 -1,020 Descending Boston Center
05:19PM 42.7894 -75.8328 325° Northwest 263 303 8,700 -1,020 Descending Boston Center
05:20PM 42.8303 -75.8661 329° Northwest 256 295 8,000 -1,020 Descending Boston Center
05:20PM 42.8461 -75.8894 313° West 247 284 7,700 -1,260 Descending Boston Center
05:21PM 42.8956 -75.9094 343° North 248 285 6,700 -1,500 Descending Boston Center
05:21PM 42.9144 -75.9106 358° North 269 310 6,200 -1,620 Descending Boston Center
05:22PM 42.9625 -75.9075 North 253 291 5,100 -1,680 Descending Boston Center
05:22PM 42.9933 -75.9206 343° North 264 304 4,500 -1,680 Descending Boston Center
05:23PM 43.0389 -75.9289 352° North 258 297 3,500 -1,380 Descending Boston Center
05:23PM 43.0592 -75.9500 323° Northwest 251 289 3,100 -1,140 Descending Boston Center
05:24PM 43.0917 -75.9803 326° Northwest 242 278 2,400 -1,020 Descending Boston Center
05:24PM 43.1053 -76.0067 305° West 198 228 2,100 -720 Descending Boston Center
05:25PM 43.1150 -76.0300 300° West 208 239 1,700 -1,140 Descending Boston Center
05:25PM 43.1100 -76.0608 257° West 123 142 1,000 -1,020 Descending Boston Center
05:26PM 43.1136 -76.0753 289° West 153 176 700 -420 Descending Boston Center
05:27PM 43.1083 -76.1064 257° West 124 143 400 -300 Descending Boston Center
05:29PM 43.1000 -76.1000 North  Level FlightAware Approximate
05:36PM 43.1112 -76.1063 North  Level Estimated
05:37PM 43.1112 -76.1063 North  Level Estimated
05:38PM 43.1112 -76.1063 North  Level Estimated
05:39PM 43.1112 -76.1063 North  Level Estimated
05:40PM 43.1112 -76.1063 North  Level Estimated
05:41PM 43.1112 -76.1063 North  Level Estimated